sensor_id;sensor_type;location;lat;lon;timestamp;P1;durP1;ratioP1;P2;durP2;ratioP2
15202;SDS011;7702;51.046;5.184;2023-04-24T00:01:29;12.17;;;8.87;;
15202;SDS011;7702;51.046;5.184;2023-04-24T00:03:56;14.80;;;8.47;;
15202;SDS011;7702;51.046;5.184;2023-04-24T00:06:24;12.10;;;8.50;;
15202;SDS011;7702;51.046;5.184;2023-04-24T00:08:58;12.43;;;9.23;;
15202;SDS011;7702;51.046;5.184;2023-04-24T00:11:25;13.47;;;9.77;;
15202;SDS011;7702;51.046;5.184;2023-04-24T00:13:51;14.77;;;9.67;;
15202;SDS011;7702;51.046;5.184;2023-04-24T00:16:17;13.30;;;9.73;;
15202;SDS011;7702;51.046;5.184;2023-04-24T00:18:43;13.60;;;9.90;;
15202;SDS011;7702;51.046;5.184;2023-04-24T00:21:10;12.90;;;10.23;;
15202;SDS011;7702;51.046;5.184;2023-04-24T00:23:36;17.27;;;10.83;;
15202;SDS011;7702;51.046;5.184;2023-04-24T00:26:01;15.00;;;10.67;;
15202;SDS011;7702;51.046;5.184;2023-04-24T00:28:27;15.23;;;10.83;;
15202;SDS011;7702;51.046;5.184;2023-04-24T00:30:53;12.40;;;10.97;;
15202;SDS011;7702;51.046;5.184;2023-04-24T00:33:19;14.23;;;10.33;;
15202;SDS011;7702;51.046;5.184;2023-04-24T00:35:45;13.10;;;10.47;;
15202;SDS011;7702;51.046;5.184;2023-04-24T00:38:11;13.73;;;11.50;;
15202;SDS011;7702;51.046;5.184;2023-04-24T00:40:36;14.13;;;11.60;;
15202;SDS011;7702;51.046;5.184;2023-04-24T00:43:02;19.47;;;12.27;;
15202;SDS011;7702;51.046;5.184;2023-04-24T00:45:28;13.97;;;11.67;;
15202;SDS011;7702;51.046;5.184;2023-04-24T00:47:56;16.73;;;12.07;;
15202;SDS011;7702;51.046;5.184;2023-04-24T00:50:23;14.87;;;11.10;;
15202;SDS011;7702;51.046;5.184;2023-04-24T00:52:49;16.70;;;11.63;;
15202;SDS011;7702;51.046;5.184;2023-04-24T00:55:16;16.23;;;12.73;;
15202;SDS011;7702;51.046;5.184;2023-04-24T00:57:42;15.93;;;11.67;;
15202;SDS011;7702;51.046;5.184;2023-04-24T01:00:09;13.80;;;11.83;;
15202;SDS011;7702;51.046;5.184;2023-04-24T01:02:38;17.47;;;11.70;;
15202;SDS011;7702;51.046;5.184;2023-04-24T01:05:08;16.00;;;11.80;;
15202;SDS011;7702;51.046;5.184;2023-04-24T01:07:34;15.43;;;12.00;;
15202;SDS011;7702;51.046;5.184;2023-04-24T01:10:01;17.17;;;12.47;;
15202;SDS011;7702;51.046;5.184;2023-04-24T01:12:28;16.77;;;12.53;;
15202;SDS011;7702;51.046;5.184;2023-04-24T01:14:54;20.00;;;13.17;;
15202;SDS011;7702;51.046;5.184;2023-04-24T01:17:21;16.93;;;12.37;;
15202;SDS011;7702;51.046;5.184;2023-04-24T01:19:47;17.63;;;11.80;;
15202;SDS011;7702;51.046;5.184;2023-04-24T01:22:13;18.30;;;12.63;;
15202;SDS011;7702;51.046;5.184;2023-04-24T01:24:40;18.80;;;12.33;;
15202;SDS011;7702;51.046;5.184;2023-04-24T01:27:07;17.23;;;12.13;;
15202;SDS011;7702;51.046;5.184;2023-04-24T01:29:33;15.83;;;12.33;;
15202;SDS011;7702;51.046;5.184;2023-04-24T01:31:59;16.13;;;12.63;;
15202;SDS011;7702;51.046;5.184;2023-04-24T01:34:25;17.90;;;12.67;;
15202;SDS011;7702;51.046;5.184;2023-04-24T01:36:51;13.90;;;11.43;;
15202;SDS011;7702;51.046;5.184;2023-04-24T01:39:17;18.57;;;12.97;;
15202;SDS011;7702;51.046;5.184;2023-04-24T01:41:42;17.80;;;12.27;;
15202;SDS011;7702;51.046;5.184;2023-04-24T01:44:08;17.23;;;11.47;;
15202;SDS011;7702;51.046;5.184;2023-04-24T01:46:34;17.30;;;11.77;;
15202;SDS011;7702;51.046;5.184;2023-04-24T01:49:00;13.87;;;11.67;;
15202;SDS011;7702;51.046;5.184;2023-04-24T01:51:27;15.87;;;12.23;;
15202;SDS011;7702;51.046;5.184;2023-04-24T01:53:53;14.10;;;11.80;;
15202;SDS011;7702;51.046;5.184;2023-04-24T01:56:22;13.10;;;11.60;;
15202;SDS011;7702;51.046;5.184;2023-04-24T01:58:48;14.73;;;11.87;;
15202;SDS011;7702;51.046;5.184;2023-04-24T02:01:19;12.70;;;11.33;;
15202;SDS011;7702;51.046;5.184;2023-04-24T02:03:45;17.07;;;11.43;;
15202;SDS011;7702;51.046;5.184;2023-04-24T02:06:11;14.60;;;11.53;;
15202;SDS011;7702;51.046;5.184;2023-04-24T02:08:37;12.93;;;11.07;;
15202;SDS011;7702;51.046;5.184;2023-04-24T02:11:03;17.23;;;11.50;;
15202;SDS011;7702;51.046;5.184;2023-04-24T02:13:28;14.60;;;12.23;;
15202;SDS011;7702;51.046;5.184;2023-04-24T02:15:54;18.10;;;12.53;;
15202;SDS011;7702;51.046;5.184;2023-04-24T02:18:20;16.57;;;11.53;;
15202;SDS011;7702;51.046;5.184;2023-04-24T02:20:47;15.87;;;11.40;;
15202;SDS011;7702;51.046;5.184;2023-04-24T02:23:13;13.00;;;11.50;;
15202;SDS011;7702;51.046;5.184;2023-04-24T02:25:39;17.77;;;11.43;;
15202;SDS011;7702;51.046;5.184;2023-04-24T02:28:05;14.57;;;11.90;;
15202;SDS011;7702;51.046;5.184;2023-04-24T02:30:31;13.10;;;11.57;;
15202;SDS011;7702;51.046;5.184;2023-04-24T02:32:57;13.10;;;11.03;;
15202;SDS011;7702;51.046;5.184;2023-04-24T02:35:23;15.83;;;11.00;;
15202;SDS011;7702;51.046;5.184;2023-04-24T02:37:49;13.27;;;10.67;;
15202;SDS011;7702;51.046;5.184;2023-04-24T02:40:14;13.10;;;10.87;;
15202;SDS011;7702;51.046;5.184;2023-04-24T02:42:40;14.00;;;11.20;;
15202;SDS011;7702;51.046;5.184;2023-04-24T02:45:06;14.97;;;10.30;;
15202;SDS011;7702;51.046;5.184;2023-04-24T02:47:32;15.50;;;9.67;;
15202;SDS011;7702;51.046;5.184;2023-04-24T02:49:58;11.33;;;9.47;;
15202;SDS011;7702;51.046;5.184;2023-04-24T02:52:23;14.17;;;9.63;;
15202;SDS011;7702;51.046;5.184;2023-04-24T02:54:49;11.50;;;10.30;;
15202;SDS011;7702;51.046;5.184;2023-04-24T02:57:15;14.50;;;10.50;;
15202;SDS011;7702;51.046;5.184;2023-04-24T02:59:40;12.40;;;10.33;;
15202;SDS011;7702;51.046;5.184;2023-04-24T03:02:06;12.13;;;10.30;;
15202;SDS011;7702;51.046;5.184;2023-04-24T03:04:32;12.93;;;10.13;;
15202;SDS011;7702;51.046;5.184;2023-04-24T03:06:57;12.23;;;10.10;;
15202;SDS011;7702;51.046;5.184;2023-04-24T03:09:23;11.83;;;10.00;;
15202;SDS011;7702;51.046;5.184;2023-04-24T03:11:50;13.20;;;10.73;;
15202;SDS011;7702;51.046;5.184;2023-04-24T03:14:16;14.93;;;10.40;;
15202;SDS011;7702;51.046;5.184;2023-04-24T03:16:41;12.07;;;10.27;;
15202;SDS011;7702;51.046;5.184;2023-04-24T03:19:07;13.37;;;12.00;;
15202;SDS011;7702;51.046;5.184;2023-04-24T03:21:33;15.40;;;10.83;;
15202;SDS011;7702;51.046;5.184;2023-04-24T03:24:00;15.30;;;11.53;;
15202;SDS011;7702;51.046;5.184;2023-04-24T03:26:26;14.47;;;11.13;;
15202;SDS011;7702;51.046;5.184;2023-04-24T03:28:52;15.37;;;12.50;;
15202;SDS011;7702;51.046;5.184;2023-04-24T03:31:17;13.70;;;12.00;;
15202;SDS011;7702;51.046;5.184;2023-04-24T03:33:44;15.77;;;11.80;;
15202;SDS011;7702;51.046;5.184;2023-04-24T03:36:09;14.00;;;11.80;;
15202;SDS011;7702;51.046;5.184;2023-04-24T03:38:35;14.73;;;12.13;;
15202;SDS011;7702;51.046;5.184;2023-04-24T03:41:01;16.20;;;12.13;;
15202;SDS011;7702;51.046;5.184;2023-04-24T03:43:26;18.20;;;13.47;;
15202;SDS011;7702;51.046;5.184;2023-04-24T03:45:52;14.40;;;12.63;;
15202;SDS011;7702;51.046;5.184;2023-04-24T03:48:18;16.33;;;12.50;;
15202;SDS011;7702;51.046;5.184;2023-04-24T03:50:44;14.43;;;12.93;;
15202;SDS011;7702;51.046;5.184;2023-04-24T03:53:10;13.27;;;11.87;;
15202;SDS011;7702;51.046;5.184;2023-04-24T03:55:36;15.97;;;12.00;;
15202;SDS011;7702;51.046;5.184;2023-04-24T03:58:02;14.73;;;12.40;;
15202;SDS011;7702;51.046;5.184;2023-04-24T04:00:27;17.03;;;13.10;;
15202;SDS011;7702;51.046;5.184;2023-04-24T04:02:53;15.20;;;12.63;;
15202;SDS011;7702;51.046;5.184;2023-04-24T04:05:19;14.80;;;11.80;;
15202;SDS011;7702;51.046;5.184;2023-04-24T04:07:45;15.33;;;12.17;;
15202;SDS011;7702;51.046;5.184;2023-04-24T04:10:11;14.03;;;11.83;;
15202;SDS011;7702;51.046;5.184;2023-04-24T04:12:36;14.63;;;12.00;;
15202;SDS011;7702;51.046;5.184;2023-04-24T04:15:02;12.97;;;11.57;;
15202;SDS011;7702;51.046;5.184;2023-04-24T04:17:29;12.17;;;10.87;;
15202;SDS011;7702;51.046;5.184;2023-04-24T04:19:55;15.93;;;11.67;;
15202;SDS011;7702;51.046;5.184;2023-04-24T04:22:21;15.53;;;11.73;;
15202;SDS011;7702;51.046;5.184;2023-04-24T04:24:47;15.03;;;11.27;;
15202;SDS011;7702;51.046;5.184;2023-04-24T04:27:12;15.67;;;10.80;;
15202;SDS011;7702;51.046;5.184;2023-04-24T04:29:38;11.33;;;10.10;;
15202;SDS011;7702;51.046;5.184;2023-04-24T04:32:05;11.40;;;10.17;;
15202;SDS011;7702;51.046;5.184;2023-04-24T04:34:31;15.03;;;11.13;;
15202;SDS011;7702;51.046;5.184;2023-04-24T04:36:58;12.37;;;9.53;;
15202;SDS011;7702;51.046;5.184;2023-04-24T04:39:27;14.10;;;9.83;;
15202;SDS011;7702;51.046;5.184;2023-04-24T04:41:53;12.70;;;9.63;;
15202;SDS011;7702;51.046;5.184;2023-04-24T04:44:19;11.57;;;9.80;;
15202;SDS011;7702;51.046;5.184;2023-04-24T04:46:45;13.33;;;9.63;;
15202;SDS011;7702;51.046;5.184;2023-04-24T04:49:11;9.40;;;8.27;;
15202;SDS011;7702;51.046;5.184;2023-04-24T04:51:36;8.73;;;7.77;;
15202;SDS011;7702;51.046;5.184;2023-04-24T04:54:02;8.00;;;7.17;;
15202;SDS011;7702;51.046;5.184;2023-04-24T04:56:28;9.37;;;7.13;;
15202;SDS011;7702;51.046;5.184;2023-04-24T04:58:53;8.20;;;7.10;;
15202;SDS011;7702;51.046;5.184;2023-04-24T05:01:19;8.40;;;6.77;;
15202;SDS011;7702;51.046;5.184;2023-04-24T05:03:45;8.20;;;6.53;;
15202;SDS011;7702;51.046;5.184;2023-04-24T05:06:10;7.23;;;6.50;;
15202;SDS011;7702;51.046;5.184;2023-04-24T05:08:36;5.40;;;4.90;;
15202;SDS011;7702;51.046;5.184;2023-04-24T05:11:02;7.43;;;6.43;;
15202;SDS011;7702;51.046;5.184;2023-04-24T05:13:28;7.10;;;6.07;;
15202;SDS011;7702;51.046;5.184;2023-04-24T05:15:54;7.00;;;5.77;;
15202;SDS011;7702;51.046;5.184;2023-04-24T05:18:20;7.93;;;5.83;;
15202;SDS011;7702;51.046;5.184;2023-04-24T05:20:45;5.60;;;5.00;;
15202;SDS011;7702;51.046;5.184;2023-04-24T05:23:11;7.23;;;5.33;;
15202;SDS011;7702;51.046;5.184;2023-04-24T05:25:37;6.07;;;5.07;;
15202;SDS011;7702;51.046;5.184;2023-04-24T05:28:04;4.60;;;4.20;;
15202;SDS011;7702;51.046;5.184;2023-04-24T05:30:30;6.23;;;4.73;;
15202;SDS011;7702;51.046;5.184;2023-04-24T05:32:55;4.97;;;4.40;;
15202;SDS011;7702;51.046;5.184;2023-04-24T05:35:21;4.47;;;4.07;;
15202;SDS011;7702;51.046;5.184;2023-04-24T05:37:47;4.67;;;4.27;;
15202;SDS011;7702;51.046;5.184;2023-04-24T05:40:12;7.87;;;4.83;;
15202;SDS011;7702;51.046;5.184;2023-04-24T05:42:38;5.50;;;4.23;;
15202;SDS011;7702;51.046;5.184;2023-04-24T05:45:04;5.37;;;4.80;;
15202;SDS011;7702;51.046;5.184;2023-04-24T05:47:30;7.27;;;5.57;;
15202;SDS011;7702;51.046;5.184;2023-04-24T05:49:56;8.13;;;6.23;;
15202;SDS011;7702;51.046;5.184;2023-04-24T05:52:22;7.20;;;6.23;;
15202;SDS011;7702;51.046;5.184;2023-04-24T05:54:48;11.50;;;7.80;;
15202;SDS011;7702;51.046;5.184;2023-04-24T05:57:13;9.77;;;7.77;;
15202;SDS011;7702;51.046;5.184;2023-04-24T05:59:40;9.90;;;8.00;;
15202;SDS011;7702;51.046;5.184;2023-04-24T06:02:06;11.83;;;8.27;;
15202;SDS011;7702;51.046;5.184;2023-04-24T06:04:32;12.10;;;7.97;;
15202;SDS011;7702;51.046;5.184;2023-04-24T06:06:58;11.63;;;8.93;;
15202;SDS011;7702;51.046;5.184;2023-04-24T06:09:25;13.70;;;9.57;;
15202;SDS011;7702;51.046;5.184;2023-04-24T06:11:51;12.90;;;8.67;;
15202;SDS011;7702;51.046;5.184;2023-04-24T06:14:21;14.17;;;9.73;;
15202;SDS011;7702;51.046;5.184;2023-04-24T06:16:47;15.03;;;9.87;;
15202;SDS011;7702;51.046;5.184;2023-04-24T06:19:13;12.67;;;9.20;;
15202;SDS011;7702;51.046;5.184;2023-04-24T06:21:38;17.20;;;11.03;;
15202;SDS011;7702;51.046;5.184;2023-04-24T06:24:04;14.70;;;9.27;;
15202;SDS011;7702;51.046;5.184;2023-04-24T06:26:30;16.03;;;9.80;;
15202;SDS011;7702;51.046;5.184;2023-04-24T06:28:55;13.50;;;8.03;;
15202;SDS011;7702;51.046;5.184;2023-04-24T06:31:23;12.93;;;9.23;;
15202;SDS011;7702;51.046;5.184;2023-04-24T06:33:49;11.77;;;8.63;;
15202;SDS011;7702;51.046;5.184;2023-04-24T06:36:15;11.90;;;8.93;;
15202;SDS011;7702;51.046;5.184;2023-04-24T06:38:41;11.83;;;8.93;;
15202;SDS011;7702;51.046;5.184;2023-04-24T06:41:07;12.50;;;9.73;;
15202;SDS011;7702;51.046;5.184;2023-04-24T06:43:33;12.80;;;8.90;;
15202;SDS011;7702;51.046;5.184;2023-04-24T06:45:59;13.77;;;8.70;;
15202;SDS011;7702;51.046;5.184;2023-04-24T06:48:25;16.73;;;9.40;;
15202;SDS011;7702;51.046;5.184;2023-04-24T06:50:51;11.80;;;8.53;;
15202;SDS011;7702;51.046;5.184;2023-04-24T06:53:17;10.77;;;7.93;;
15202;SDS011;7702;51.046;5.184;2023-04-24T06:55:43;9.73;;;7.67;;
15202;SDS011;7702;51.046;5.184;2023-04-24T06:58:11;10.47;;;8.13;;
15202;SDS011;7702;51.046;5.184;2023-04-24T07:00:44;10.53;;;7.50;;
15202;SDS011;7702;51.046;5.184;2023-04-24T07:03:10;13.43;;;7.90;;
15202;SDS011;7702;51.046;5.184;2023-04-24T07:05:36;13.57;;;8.33;;
15202;SDS011;7702;51.046;5.184;2023-04-24T07:08:03;10.70;;;8.33;;
15202;SDS011;7702;51.046;5.184;2023-04-24T07:10:29;13.73;;;8.80;;
15202;SDS011;7702;51.046;5.184;2023-04-24T07:12:55;10.10;;;8.13;;
15202;SDS011;7702;51.046;5.184;2023-04-24T07:15:23;14.43;;;8.90;;
15202;SDS011;7702;51.046;5.184;2023-04-24T07:17:49;12.73;;;8.27;;
15202;SDS011;7702;51.046;5.184;2023-04-24T07:20:15;14.33;;;9.90;;
15202;SDS011;7702;51.046;5.184;2023-04-24T07:22:41;13.10;;;9.70;;
15202;SDS011;7702;51.046;5.184;2023-04-24T07:25:07;13.23;;;9.63;;
15202;SDS011;7702;51.046;5.184;2023-04-24T07:27:33;15.70;;;10.83;;
15202;SDS011;7702;51.046;5.184;2023-04-24T07:29:59;12.47;;;9.47;;
15202;SDS011;7702;51.046;5.184;2023-04-24T07:32:25;15.27;;;10.03;;
15202;SDS011;7702;51.046;5.184;2023-04-24T07:34:51;15.87;;;11.03;;
15202;SDS011;7702;51.046;5.184;2023-04-24T07:37:17;16.10;;;11.17;;
15202;SDS011;7702;51.046;5.184;2023-04-24T07:39:43;19.87;;;11.03;;
15202;SDS011;7702;51.046;5.184;2023-04-24T07:42:08;15.70;;;10.80;;
15202;SDS011;7702;51.046;5.184;2023-04-24T07:44:34;12.73;;;8.93;;
15202;SDS011;7702;51.046;5.184;2023-04-24T07:47:00;15.97;;;11.17;;
15202;SDS011;7702;51.046;5.184;2023-04-24T07:49:26;18.13;;;11.20;;
15202;SDS011;7702;51.046;5.184;2023-04-24T07:51:52;16.53;;;12.77;;
15202;SDS011;7702;51.046;5.184;2023-04-24T07:54:18;17.63;;;13.17;;
15202;SDS011;7702;51.046;5.184;2023-04-24T07:56:44;18.20;;;12.13;;
15202;SDS011;7702;51.046;5.184;2023-04-24T07:59:10;18.77;;;11.83;;
15202;SDS011;7702;51.046;5.184;2023-04-24T08:01:36;16.07;;;11.57;;
15202;SDS011;7702;51.046;5.184;2023-04-24T08:04:02;17.63;;;11.67;;
15202;SDS011;7702;51.046;5.184;2023-04-24T08:06:27;14.73;;;10.67;;
15202;SDS011;7702;51.046;5.184;2023-04-24T08:08:55;13.73;;;11.27;;
15202;SDS011;7702;51.046;5.184;2023-04-24T08:11:21;19.50;;;11.53;;
15202;SDS011;7702;51.046;5.184;2023-04-24T08:13:47;18.93;;;11.73;;
15202;SDS011;7702;51.046;5.184;2023-04-24T08:16:12;14.60;;;10.97;;
15202;SDS011;7702;51.046;5.184;2023-04-24T08:18:38;12.77;;;9.33;;
15202;SDS011;7702;51.046;5.184;2023-04-24T08:21:04;13.60;;;8.80;;
15202;SDS011;7702;51.046;5.184;2023-04-24T08:23:30;14.47;;;9.53;;
15202;SDS011;7702;51.046;5.184;2023-04-24T08:25:55;13.53;;;9.20;;
15202;SDS011;7702;51.046;5.184;2023-04-24T08:28:22;15.73;;;9.37;;
15202;SDS011;7702;51.046;5.184;2023-04-24T08:30:47;14.10;;;9.03;;
15202;SDS011;7702;51.046;5.184;2023-04-24T08:33:13;15.37;;;9.77;;
15202;SDS011;7702;51.046;5.184;2023-04-24T08:35:40;15.63;;;10.43;;
15202;SDS011;7702;51.046;5.184;2023-04-24T08:38:05;14.37;;;9.77;;
15202;SDS011;7702;51.046;5.184;2023-04-24T08:40:32;15.83;;;9.80;;
15202;SDS011;7702;51.046;5.184;2023-04-24T08:43:00;20.57;;;8.80;;
15202;SDS011;7702;51.046;5.184;2023-04-24T08:45:26;14.53;;;8.37;;
15202;SDS011;7702;51.046;5.184;2023-04-24T08:47:53;13.53;;;8.07;;
15202;SDS011;7702;51.046;5.184;2023-04-24T08:50:21;11.70;;;6.53;;
15202;SDS011;7702;51.046;5.184;2023-04-24T08:52:49;11.60;;;6.60;;
15202;SDS011;7702;51.046;5.184;2023-04-24T08:55:15;11.63;;;6.43;;
15202;SDS011;7702;51.046;5.184;2023-04-24T08:57:45;10.10;;;5.80;;
15202;SDS011;7702;51.046;5.184;2023-04-24T09:00:15;16.27;;;5.90;;
15202;SDS011;7702;51.046;5.184;2023-04-24T09:02:44;11.53;;;5.13;;
15202;SDS011;7702;51.046;5.184;2023-04-24T09:05:13;11.37;;;5.37;;
15202;SDS011;7702;51.046;5.184;2023-04-24T09:07:41;9.07;;;5.53;;
15202;SDS011;7702;51.046;5.184;2023-04-24T09:10:11;10.23;;;5.00;;
15202;SDS011;7702;51.046;5.184;2023-04-24T09:12:37;11.23;;;5.57;;
15202;SDS011;7702;51.046;5.184;2023-04-24T09:15:03;13.00;;;5.57;;
15202;SDS011;7702;51.046;5.184;2023-04-24T09:17:30;10.30;;;5.40;;
15202;SDS011;7702;51.046;5.184;2023-04-24T09:19:56;11.23;;;5.07;;
15202;SDS011;7702;51.046;5.184;2023-04-24T09:22:22;9.10;;;4.43;;
15202;SDS011;7702;51.046;5.184;2023-04-24T09:24:48;11.00;;;6.87;;
15202;SDS011;7702;51.046;5.184;2023-04-24T09:27:24;10.07;;;5.10;;
15202;SDS011;7702;51.046;5.184;2023-04-24T09:29:53;10.80;;;5.00;;
15202;SDS011;7702;51.046;5.184;2023-04-24T09:32:20;7.53;;;5.30;;
15202;SDS011;7702;51.046;5.184;2023-04-24T09:34:47;11.70;;;5.60;;
15202;SDS011;7702;51.046;5.184;2023-04-24T09:37:29;11.83;;;5.80;;
15202;SDS011;7702;51.046;5.184;2023-04-24T09:40:17;13.03;;;5.80;;
15202;SDS011;7702;51.046;5.184;2023-04-24T09:42:43;11.60;;;5.13;;
15202;SDS011;7702;51.046;5.184;2023-04-24T09:45:10;9.37;;;4.57;;
15202;SDS011;7702;51.046;5.184;2023-04-24T09:47:37;9.07;;;4.40;;
15202;SDS011;7702;51.046;5.184;2023-04-24T09:50:13;9.37;;;5.07;;
15202;SDS011;7702;51.046;5.184;2023-04-24T09:52:41;9.03;;;5.20;;
15202;SDS011;7702;51.046;5.184;2023-04-24T09:55:21;7.60;;;5.03;;
15202;SDS011;7702;51.046;5.184;2023-04-24T09:57:47;11.00;;;4.70;;
15202;SDS011;7702;51.046;5.184;2023-04-24T10:00:30;8.27;;;4.77;;
15202;SDS011;7702;51.046;5.184;2023-04-24T10:02:58;7.00;;;4.37;;
15202;SDS011;7702;51.046;5.184;2023-04-24T10:05:31;10.60;;;5.03;;
15202;SDS011;7702;51.046;5.184;2023-04-24T10:10:28;12.53;;;5.23;;
15202;SDS011;7702;51.046;5.184;2023-04-24T10:12:54;9.23;;;4.57;;
15202;SDS011;7702;51.046;5.184;2023-04-24T10:15:20;7.87;;;4.90;;
15202;SDS011;7702;51.046;5.184;2023-04-24T10:17:49;9.27;;;4.40;;
15202;SDS011;7702;51.046;5.184;2023-04-24T10:20:23;9.10;;;4.73;;
15202;SDS011;7702;51.046;5.184;2023-04-24T10:22:54;8.70;;;4.70;;
15202;SDS011;7702;51.046;5.184;2023-04-24T10:25:20;8.90;;;4.60;;
15202;SDS011;7702;51.046;5.184;2023-04-24T10:27:47;10.60;;;4.90;;
15202;SDS011;7702;51.046;5.184;2023-04-24T10:30:14;7.77;;;4.40;;
15202;SDS011;7702;51.046;5.184;2023-04-24T10:32:40;8.53;;;4.23;;
15202;SDS011;7702;51.046;5.184;2023-04-24T10:35:07;8.03;;;4.17;;
15202;SDS011;7702;51.046;5.184;2023-04-24T10:37:37;8.57;;;3.90;;
15202;SDS011;7702;51.046;5.184;2023-04-24T10:40:24;9.57;;;3.80;;
15202;SDS011;7702;51.046;5.184;2023-04-24T10:43:03;9.73;;;3.80;;
15202;SDS011;7702;51.046;5.184;2023-04-24T10:45:32;10.63;;;4.43;;
15202;SDS011;7702;51.046;5.184;2023-04-24T10:48:02;10.73;;;4.00;;
15202;SDS011;7702;51.046;5.184;2023-04-24T10:50:28;9.33;;;3.77;;
15202;SDS011;7702;51.046;5.184;2023-04-24T10:53:07;10.67;;;3.93;;
15202;SDS011;7702;51.046;5.184;2023-04-24T10:58:10;8.50;;;4.53;;
15202;SDS011;7702;51.046;5.184;2023-04-24T11:00:37;11.33;;;4.40;;
15202;SDS011;7702;51.046;5.184;2023-04-24T11:03:05;8.07;;;4.17;;
15202;SDS011;7702;51.046;5.184;2023-04-24T11:05:48;7.20;;;4.80;;
15202;SDS011;7702;51.046;5.184;2023-04-24T11:10:57;8.70;;;3.53;;
15202;SDS011;7702;51.046;5.184;2023-04-24T11:13:24;9.43;;;3.83;;
15202;SDS011;7702;51.046;5.184;2023-04-24T11:19:04;9.17;;;4.07;;
15202;SDS011;7702;51.046;5.184;2023-04-24T11:21:42;7.20;;;3.53;;
15202;SDS011;7702;51.046;5.184;2023-04-24T11:27:05;4.03;;;2.50;;
15202;SDS011;7702;51.046;5.184;2023-04-24T11:34:52;3.43;;;2.30;;
15202;SDS011;7702;51.046;5.184;2023-04-24T11:37:38;4.40;;;2.30;;
15202;SDS011;7702;51.046;5.184;2023-04-24T11:40:11;5.03;;;2.40;;
15202;SDS011;7702;51.046;5.184;2023-04-24T11:42:39;8.20;;;2.70;;
15202;SDS011;7702;51.046;5.184;2023-04-24T11:45:09;8.03;;;2.87;;
15202;SDS011;7702;51.046;5.184;2023-04-24T11:47:37;4.47;;;2.67;;
15202;SDS011;7702;51.046;5.184;2023-04-24T11:50:04;4.97;;;2.67;;
15202;SDS011;7702;51.046;5.184;2023-04-24T11:52:31;5.60;;;2.67;;
15202;SDS011;7702;51.046;5.184;2023-04-24T11:54:58;7.47;;;3.17;;
15202;SDS011;7702;51.046;5.184;2023-04-24T11:57:25;8.63;;;4.40;;
15202;SDS011;7702;51.046;5.184;2023-04-24T11:59:58;9.93;;;5.23;;
15202;SDS011;7702;51.046;5.184;2023-04-24T12:02:25;9.00;;;5.53;;
15202;SDS011;7702;51.046;5.184;2023-04-24T12:04:52;5.70;;;3.63;;
15202;SDS011;7702;51.046;5.184;2023-04-24T12:07:19;8.37;;;5.27;;
15202;SDS011;7702;51.046;5.184;2023-04-24T12:09:46;8.17;;;3.70;;
15202;SDS011;7702;51.046;5.184;2023-04-24T12:12:14;8.07;;;3.70;;
15202;SDS011;7702;51.046;5.184;2023-04-24T12:14:47;6.63;;;4.50;;
15202;SDS011;7702;51.046;5.184;2023-04-24T12:17:14;8.90;;;4.90;;
15202;SDS011;7702;51.046;5.184;2023-04-24T12:19:48;10.50;;;4.80;;
15202;SDS011;7702;51.046;5.184;2023-04-24T12:22:15;10.37;;;5.30;;
15202;SDS011;7702;51.046;5.184;2023-04-24T12:25:03;7.20;;;4.90;;
15202;SDS011;7702;51.046;5.184;2023-04-24T12:27:33;6.93;;;4.63;;
15202;SDS011;7702;51.046;5.184;2023-04-24T12:30:00;7.10;;;4.50;;
15202;SDS011;7702;51.046;5.184;2023-04-24T12:32:26;5.50;;;4.60;;
15202;SDS011;7702;51.046;5.184;2023-04-24T12:34:52;8.77;;;5.43;;
15202;SDS011;7702;51.046;5.184;2023-04-24T12:37:19;8.10;;;5.87;;
15202;SDS011;7702;51.046;5.184;2023-04-24T12:42:46;7.23;;;4.77;;
15202;SDS011;7702;51.046;5.184;2023-04-24T12:45:14;9.70;;;4.30;;
15202;SDS011;7702;51.046;5.184;2023-04-24T12:47:41;7.03;;;4.43;;
15202;SDS011;7702;51.046;5.184;2023-04-24T12:50:09;7.23;;;4.40;;
15202;SDS011;7702;51.046;5.184;2023-04-24T12:52:36;6.17;;;3.80;;
15202;SDS011;7702;51.046;5.184;2023-04-24T12:55:02;6.23;;;3.67;;
15202;SDS011;7702;51.046;5.184;2023-04-24T12:57:28;7.53;;;4.20;;
15202;SDS011;7702;51.046;5.184;2023-04-24T12:59:55;5.37;;;3.80;;
15202;SDS011;7702;51.046;5.184;2023-04-24T13:02:25;9.87;;;4.50;;
15202;SDS011;7702;51.046;5.184;2023-04-24T13:04:52;7.33;;;4.00;;
15202;SDS011;7702;51.046;5.184;2023-04-24T13:07:18;5.07;;;3.67;;
15202;SDS011;7702;51.046;5.184;2023-04-24T13:09:44;7.13;;;4.00;;
15202;SDS011;7702;51.046;5.184;2023-04-24T13:12:11;6.97;;;4.30;;
15202;SDS011;7702;51.046;5.184;2023-04-24T13:14:38;6.50;;;4.43;;
15202;SDS011;7702;51.046;5.184;2023-04-24T13:17:04;7.23;;;4.10;;
15202;SDS011;7702;51.046;5.184;2023-04-24T13:19:34;6.10;;;4.27;;
15202;SDS011;7702;51.046;5.184;2023-04-24T13:22:05;5.23;;;3.80;;
15202;SDS011;7702;51.046;5.184;2023-04-24T13:24:31;5.37;;;2.60;;
15202;SDS011;7702;51.046;5.184;2023-04-24T13:26:58;4.20;;;2.30;;
15202;SDS011;7702;51.046;5.184;2023-04-24T13:29:24;4.63;;;2.27;;
15202;SDS011;7702;51.046;5.184;2023-04-24T13:31:51;4.77;;;2.00;;
15202;SDS011;7702;51.046;5.184;2023-04-24T13:34:19;6.20;;;2.63;;
15202;SDS011;7702;51.046;5.184;2023-04-24T13:36:44;4.40;;;2.27;;
15202;SDS011;7702;51.046;5.184;2023-04-24T13:39:10;3.60;;;2.73;;
15202;SDS011;7702;51.046;5.184;2023-04-24T13:41:36;4.57;;;2.27;;
15202;SDS011;7702;51.046;5.184;2023-04-24T13:44:02;5.47;;;2.70;;
15202;SDS011;7702;51.046;5.184;2023-04-24T13:46:29;3.47;;;2.43;;
15202;SDS011;7702;51.046;5.184;2023-04-24T13:48:55;6.30;;;2.20;;
15202;SDS011;7702;51.046;5.184;2023-04-24T13:51:23;4.37;;;2.60;;
15202;SDS011;7702;51.046;5.184;2023-04-24T13:53:51;4.93;;;2.70;;
15202;SDS011;7702;51.046;5.184;2023-04-24T13:56:17;3.33;;;2.30;;
15202;SDS011;7702;51.046;5.184;2023-04-24T13:58:43;4.53;;;2.30;;
15202;SDS011;7702;51.046;5.184;2023-04-24T14:01:09;6.63;;;4.10;;
15202;SDS011;7702;51.046;5.184;2023-04-24T14:03:36;4.60;;;2.57;;
15202;SDS011;7702;51.046;5.184;2023-04-24T14:06:03;4.03;;;2.80;;
15202;SDS011;7702;51.046;5.184;2023-04-24T14:08:28;3.53;;;2.87;;
15202;SDS011;7702;51.046;5.184;2023-04-24T14:10:54;4.10;;;3.17;;
15202;SDS011;7702;51.046;5.184;2023-04-24T14:13:20;3.40;;;3.07;;
15202;SDS011;7702;51.046;5.184;2023-04-24T14:15:46;2.80;;;2.57;;
15202;SDS011;7702;51.046;5.184;2023-04-24T14:18:11;3.57;;;2.77;;
15202;SDS011;7702;51.046;5.184;2023-04-24T14:20:37;3.00;;;2.70;;
15202;SDS011;7702;51.046;5.184;2023-04-24T14:23:03;4.47;;;2.40;;
15202;SDS011;7702;51.046;5.184;2023-04-24T14:25:29;3.33;;;2.67;;
15202;SDS011;7702;51.046;5.184;2023-04-24T14:27:55;4.07;;;2.23;;
15202;SDS011;7702;51.046;5.184;2023-04-24T14:30:21;2.90;;;2.63;;
15202;SDS011;7702;51.046;5.184;2023-04-24T14:32:47;4.70;;;2.60;;
15202;SDS011;7702;51.046;5.184;2023-04-24T14:35:13;2.47;;;2.07;;
15202;SDS011;7702;51.046;5.184;2023-04-24T14:37:39;6.13;;;2.33;;
15202;SDS011;7702;51.046;5.184;2023-04-24T14:40:08;3.27;;;2.47;;
15202;SDS011;7702;51.046;5.184;2023-04-24T14:42:34;3.57;;;2.20;;
15202;SDS011;7702;51.046;5.184;2023-04-24T14:45:00;3.10;;;2.30;;
15202;SDS011;7702;51.046;5.184;2023-04-24T14:47:26;4.00;;;1.97;;
15202;SDS011;7702;51.046;5.184;2023-04-24T14:49:52;7.27;;;2.70;;
15202;SDS011;7702;51.046;5.184;2023-04-24T14:52:18;4.57;;;2.37;;
15202;SDS011;7702;51.046;5.184;2023-04-24T14:54:44;3.17;;;2.20;;
15202;SDS011;7702;51.046;5.184;2023-04-24T14:57:10;2.33;;;1.80;;
15202;SDS011;7702;51.046;5.184;2023-04-24T14:59:35;3.67;;;1.80;;
15202;SDS011;7702;51.046;5.184;2023-04-24T15:02:01;2.80;;;1.90;;
15202;SDS011;7702;51.046;5.184;2023-04-24T15:04:27;4.60;;;2.10;;
15202;SDS011;7702;51.046;5.184;2023-04-24T15:06:54;2.83;;;1.50;;
15202;SDS011;7702;51.046;5.184;2023-04-24T15:09:20;3.70;;;1.80;;